Time;durP1;ratioP1;P1;durP2;ratioP2;P2;SDS_P1;SDS_P2;PMS_P1;PMS_P2;Temp;Humidity;BMP_temperature;BMP_pressure;BME280_temperature;BME280_humidity;BME280_pressure;Samples;Min_cycle;Max_cycle;Signal;HPM_P1;HPM_P2
2022/05/11 00:01:29;;;;;;;1.15;0.82;;;12.80;99.90;;;;;;5023894;28;20045;-80
2022/05/11 00:04:00;;;;;;;0.10;0.10;;;12.90;99.90;;;;;;5019746;28;20053;-79
2022/05/11 00:06:26;;;;;;;1.55;0.45;;;12.80;99.90;;;;;;5019333;28;20050;-79
2022/05/11 00:08:54;;;;;;;0.30;0.30;;;12.90;99.90;;;;;;5019985;28;20038;-79
2022/05/11 00:11:20;;;;;;;10.95;3.25;;;12.90;99.90;;;;;;5001487;28;20037;-80
2022/05/11 00:13:46;;;;;;;0.32;0.32;;;12.90;99.90;;;;;;5015692;28;20033;-86
2022/05/11 00:16:12;;;;;;;0.73;0.68;;;12.90;99.90;;;;;;5033301;28;20507;-86
2022/05/11 00:18:38;;;;;;;0.10;0.10;;;12.90;99.90;;;;;;5028766;28;20048;-85
2022/05/11 00:21:04;;;;;;;0.03;0.03;;;12.90;99.90;;;;;;5032542;28;20050;-86
2022/05/11 00:23:30;;;;;;;0.47;0.47;;;12.90;99.90;;;;;;5008107;28;20372;-85
2022/05/11 00:25:56;;;;;;;0.47;0.30;;;13.00;99.90;;;;;;5023000;28;20042;-85
2022/05/11 00:28:22;;;;;;;0.30;0.30;;;13.00;99.90;;;;;;5013904;28;20036;-86
2022/05/11 00:30:48;;;;;;;1.35;0.28;;;13.00;99.90;;;;;;5018521;28;20421;-79
2022/05/11 00:33:15;;;;;;;0.15;0.15;;;13.00;99.90;;;;;;5017510;28;20041;-79
2022/05/11 00:35:43;;;;;;;0.52;0.52;;;13.10;99.90;;;;;;5036502;28;20613;-79
2022/05/11 00:38:10;;;;;;;2.30;0.43;;;13.00;99.90;;;;;;5001999;28;20046;-79
2022/05/11 00:40:45;;;;;;;1.23;1.13;;;13.00;99.90;;;;;;5019022;28;20045;-79
2022/05/11 00:43:11;;;;;;;0.70;0.55;;;13.10;99.90;;;;;;5000270;28;20082;-79
2022/05/11 00:45:48;;;;;;;0.35;0.35;;;13.10;99.90;;;;;;5002758;28;20033;-85
2022/05/11 00:51:12;;;;;;;0.77;0.77;;;13.10;99.90;;;;;;5029540;28;20045;-86
2022/05/11 00:53:42;;;;;;;0.68;0.68;;;13.10;99.90;;;;;;5022931;28;20072;-86
2022/05/11 00:56:08;;;;;;;0.22;0.22;;;13.10;99.90;;;;;;5050083;28;21799;-85
2022/05/11 00:58:50;;;;;;;2.95;0.90;;;13.10;99.90;;;;;;5032306;28;20052;-86
2022/05/11 01:01:17;;;;;;;0.10;0.10;;;13.10;99.90;;;;;;5025454;28;20038;-86
2022/05/11 01:03:51;;;;;;;0.30;0.30;;;13.10;99.90;;;;;;5036998;28;20502;-80
2022/05/11 01:06:19;;;;;;;4.55;0.55;;;13.20;99.90;;;;;;5005301;28;20394;-79
2022/05/11 01:08:45;;;;;;;1.38;0.85;;;13.10;99.90;;;;;;5023159;28;20041;-80
2022/05/11 01:11:11;;;;;;;0.22;0.22;;;13.10;99.90;;;;;;5017123;28;20051;-80
2022/05/11 01:13:40;;;;;;;0.10;0.10;;;13.20;99.90;;;;;;5039086;28;20045;-80
2022/05/11 01:16:06;;;;;;;0.00;0.00;;;13.20;99.90;;;;;;5004708;28;20045;-80
2022/05/11 01:18:32;;;;;;;0.82;0.55;;;13.20;99.90;;;;;;5020932;28;20047;-80
2022/05/11 01:21:02;;;;;;;0.10;0.10;;;13.10;99.90;;;;;;5024363;28;20036;-79
2022/05/11 01:24:00;;;;;;;0.25;0.25;;;13.10;99.90;;;;;;5022376;28;20088;-80
2022/05/11 01:26:26;;;;;;;0.30;0.20;;;13.10;99.90;;;;;;5036726;28;20072;-80
2022/05/11 01:28:54;;;;;;;0.85;0.82;;;13.10;99.90;;;;;;5011844;28;20135;-80
2022/05/11 01:31:21;;;;;;;0.10;0.10;;;13.10;99.90;;;;;;5005146;28;20491;-80
2022/05/11 01:33:50;;;;;;;0.60;0.60;;;13.10;99.90;;;;;;5022796;28;20083;-80
2022/05/11 01:36:24;;;;;;;0.65;0.60;;;13.10;99.90;;;;;;5012140;28;20386;-86
2022/05/11 01:39:17;;;;;;;0.20;0.20;;;13.10;99.90;;;;;;5041793;28;20049;-87
2022/05/11 01:41:52;;;;;;;0.00;0.00;;;13.00;99.90;;;;;;5032090;28;20045;-87
2022/05/11 01:44:19;;;;;;;0.50;0.50;;;13.00;99.90;;;;;;5006931;28;20060;-87
2022/05/11 01:46:51;;;;;;;0.70;0.35;;;13.00;99.90;;;;;;5000840;28;20037;-87
2022/05/11 01:49:18;;;;;;;0.68;0.50;;;13.00;99.90;;;;;;5029390;28;20073;-87
2022/05/11 01:51:44;;;;;;;0.28;0.28;;;13.00;99.90;;;;;;5049231;28;20049;-87
2022/05/11 01:54:10;;;;;;;1.08;0.20;;;13.00;99.90;;;;;;5011698;28;20048;-86
2022/05/11 01:56:35;;;;;;;0.60;0.60;;;13.00;99.90;;;;;;5019054;28;20033;-86
2022/05/11 01:59:01;;;;;;;0.30;0.30;;;13.00;99.90;;;;;;4997609;28;20045;-86
2022/05/11 02:01:29;;;;;;;0.38;0.38;;;13.00;99.90;;;;;;5034341;28;20426;-86
2022/05/11 02:03:56;;;;;;;0.20;0.20;;;13.00;99.90;;;;;;5032114;28;20095;-86
2022/05/11 02:09:07;;;;;;;0.35;0.35;;;13.00;99.90;;;;;;5043358;28;20433;-86
2022/05/11 02:11:32;;;;;;;0.25;0.25;;;13.00;99.90;;;;;;5009784;28;20040;-86
2022/05/11 02:13:58;;;;;;;0.20;0.20;;;13.00;99.90;;;;;;5020364;28;20037;-87
2022/05/11 02:16:25;;;;;;;2.65;1.25;;;13.00;99.90;;;;;;5054530;28;20041;-86
2022/05/11 02:18:52;;;;;;;0.00;0.00;;;13.00;99.90;;;;;;5035435;28;20068;-87
2022/05/11 02:21:18;;;;;;;3.10;0.40;;;13.00;99.90;;;;;;5025427;28;20094;-87
2022/05/11 02:23:43;;;;;;;0.20;0.20;;;13.10;99.90;;;;;;5030790;28;20048;-87
2022/05/11 02:26:11;;;;;;;0.35;0.35;;;13.00;99.90;;;;;;5028577;28;20045;-80
2022/05/11 02:28:38;;;;;;;0.32;0.30;;;13.10;99.90;;;;;;5002369;28;20044;-80
2022/05/11 02:31:04;;;;;;;0.40;0.40;;;13.00;99.90;;;;;;5020870;28;20040;-80
2022/05/11 02:33:31;;;;;;;0.30;0.30;;;13.00;99.90;;;;;;5021335;28;20033;-80
2022/05/11 02:35:58;;;;;;;0.52;0.52;;;13.10;99.90;;;;;;5002287;28;20402;-80
2022/05/11 02:38:30;;;;;;;1.90;0.40;;;13.00;99.90;;;;;;5022410;28;20047;-80
2022/05/11 02:40:59;;;;;;;0.28;0.28;;;13.00;99.90;;;;;;5003708;28;20148;-80
2022/05/11 02:43:24;;;;;;;0.80;0.57;;;13.00;99.90;;;;;;5004024;28;20050;-80
2022/05/11 02:45:50;;;;;;;0.68;0.43;;;13.00;99.90;;;;;;5002878;28;20091;-80
2022/05/11 02:48:20;;;;;;;1.75;0.80;;;13.00;99.90;;;;;;5021334;28;20049;-80
2022/05/11 02:50:57;;;;;;;0.50;0.50;;;13.00;99.90;;;;;;5040110;28;20487;-80
2022/05/11 02:53:26;;;;;;;1.05;0.52;;;13.00;99.90;;;;;;5007277;28;20043;-80
2022/05/11 02:55:53;;;;;;;1.23;1.05;;;13.00;99.90;;;;;;5022610;28;20045;-80
2022/05/11 02:58:21;;;;;;;0.35;0.35;;;13.00;99.90;;;;;;5023451;28;20049;-80
2022/05/11 03:00:50;;;;;;;0.20;0.20;;;13.00;99.90;;;;;;5023269;28;20254;-80
2022/05/11 03:03:17;;;;;;;0.22;0.22;;;13.00;99.90;;;;;;5025145;28;20108;-80
2022/05/11 03:05:45;;;;;;;0.10;0.10;;;12.90;99.90;;;;;;5041135;28;20049;-80
2022/05/11 03:08:11;;;;;;;0.03;0.03;;;13.00;99.90;;;;;;5026124;28;20045;-80
2022/05/11 03:10:38;;;;;;;0.00;0.00;;;12.90;99.90;;;;;;5008849;28;20033;-80
2022/05/11 03:13:04;;;;;;;0.35;0.32;;;12.90;99.90;;;;;;5025636;28;20060;-80
2022/05/11 03:15:31;;;;;;;2.45;0.30;;;13.00;99.90;;;;;;5039131;28;20072;-80
2022/05/11 03:17:57;;;;;;;0.40;0.40;;;12.90;99.90;;;;;;5022915;28;20570;-80
2022/05/11 03:20:23;;;;;;;0.90;0.82;;;12.90;99.90;;;;;;5061093;22;20132;-86
2022/05/11 03:22:53;;;;;;;0.40;0.40;;;12.90;99.90;;;;;;5020064;28;20049;-86
2022/05/11 03:25:20;;;;;;;0.20;0.20;;;12.90;99.90;;;;;;5031012;28;20506;-86
2022/05/11 03:27:45;;;;;;;0.10;0.10;;;13.00;99.90;;;;;;4999333;28;20057;-86
2022/05/11 03:30:12;;;;;;;0.20;0.20;;;12.90;99.90;;;;;;5001135;28;20037;-86
2022/05/11 03:35:22;;;;;;;0.47;0.35;;;12.90;99.90;;;;;;5016515;28;20119;-81
2022/05/11 03:37:48;;;;;;;0.47;0.47;;;12.90;99.90;;;;;;5032542;28;20484;-81
2022/05/11 03:40:13;;;;;;;0.45;0.10;;;12.90;99.90;;;;;;5018869;28;20077;-81
2022/05/11 03:42:41;;;;;;;0.20;0.20;;;12.90;99.90;;;;;;5016854;28;20448;-81
2022/05/11 03:45:17;;;;;;;0.20;0.20;;;13.20;99.90;;;;;;5015661;28;20044;-81
2022/05/11 03:47:45;;;;;;;0.20;0.20;;;12.90;99.90;;;;;;5016695;28;20042;-81
2022/05/11 03:50:11;;;;;;;0.40;0.40;;;12.90;99.90;;;;;;5000539;28;20056;-86
2022/05/11 03:52:38;;;;;;;0.32;0.32;;;12.90;99.90;;;;;;5020583;28;20047;-86
2022/05/11 03:55:05;;;;;;;0.20;0.20;;;12.90;99.90;;;;;;5017327;28;20048;-86
2022/05/11 03:57:33;;;;;;;0.00;0.00;;;12.90;99.90;;;;;;5017651;28;20041;-86
2022/05/11 03:59:59;;;;;;;0.22;0.22;;;12.90;99.90;;;;;;5019484;28;20049;-86
2022/05/11 04:02:25;;;;;;;0.17;0.17;;;12.90;99.90;;;;;;5002630;28;20179;-86
2022/05/11 04:04:51;;;;;;;0.45;0.30;;;12.90;99.90;;;;;;4988202;28;20041;-86
2022/05/11 04:07:16;;;;;;;0.45;0.45;;;12.90;99.90;;;;;;5000801;28;20049;-80
2022/05/11 04:09:42;;;;;;;0.40;0.40;;;12.90;99.90;;;;;;4998138;28;20037;-81
2022/05/11 04:12:09;;;;;;;0.10;0.10;;;13.00;99.90;;;;;;5018656;28;20762;-81
2022/05/11 04:14:34;;;;;;;0.03;0.03;;;12.90;99.90;;;;;;5015868;28;20044;-80
2022/05/11 04:17:00;;;;;;;0.43;0.30;;;12.90;99.90;;;;;;5034521;28;20472;-81
2022/05/11 04:19:27;;;;;;;0.17;0.17;;;13.00;99.90;;;;;;5003168;28;20057;-81
2022/05/11 04:21:53;;;;;;;0.05;0.05;;;13.00;99.90;;;;;;5016257;28;20601;-81
2022/05/11 04:24:18;;;;;;;0.17;0.17;;;13.00;99.90;;;;;;5018233;28;20050;-80
2022/05/11 04:26:44;;;;;;;2.35;0.57;;;13.00;99.90;;;;;;5016724;28;20036;-80
2022/05/11 04:29:10;;;;;;;0.00;0.00;;;13.10;99.90;;;;;;5017583;28;20057;-80
2022/05/11 04:31:35;;;;;;;0.20;0.20;;;13.00;99.90;;;;;;5001220;28;20037;-80
2022/05/11 04:34:01;;;;;;;1.30;0.65;;;13.10;99.90;;;;;;5016322;28;21114;-80
2022/05/11 04:36:28;;;;;;;0.10;0.10;;;13.10;99.90;;;;;;5015336;28;20038;-80
2022/05/11 04:38:53;;;;;;;0.32;0.32;;;13.20;99.90;;;;;;5002534;28;20088;-80
2022/05/11 04:41:19;;;;;;;0.15;0.15;;;13.20;99.90;;;;;;5031027;28;20128;-81
2022/05/11 04:43:45;;;;;;;0.40;0.40;;;13.20;99.90;;;;;;5017348;28;20053;-81
2022/05/11 04:46:11;;;;;;;0.68;0.55;;;13.20;99.90;;;;;;5016932;28;20129;-80
2022/05/11 04:48:36;;;;;;;0.00;0.00;;;13.30;99.90;;;;;;4993466;28;20033;-81
2022/05/11 04:51:03;;;;;;;0.20;0.20;;;13.20;99.90;;;;;;5000828;28;20463;-80
2022/05/11 04:53:29;;;;;;;0.35;0.35;;;13.30;99.90;;;;;;5019255;28;20072;-81
2022/05/11 04:55:56;;;;;;;0.85;0.75;;;13.30;99.90;;;;;;5016348;28;20127;-81
2022/05/11 04:58:22;;;;;;;0.55;0.47;;;13.30;99.90;;;;;;4999990;28;20615;-81
2022/05/11 05:00:48;;;;;;;0.40;0.40;;;13.40;99.90;;;;;;5001202;28;20037;-80
2022/05/11 05:03:14;;;;;;;0.90;0.52;;;13.40;99.90;;;;;;4999129;28;20068;-81
2022/05/11 05:05:41;;;;;;;1.30;0.88;;;13.40;99.90;;;;;;5016310;28;20042;-81
2022/05/11 05:08:07;;;;;;;0.47;0.35;;;13.50;99.90;;;;;;4998026;28;20162;-81
2022/05/11 05:10:34;;;;;;;0.30;0.30;;;13.50;99.90;;;;;;5001526;28;20383;-80
2022/05/11 05:13:05;;;;;;;0.20;0.20;;;13.50;99.90;;;;;;5034184;28;20029;-81
2022/05/11 05:15:31;;;;;;;0.00;0.00;;;13.50;99.90;;;;;;5017809;28;20557;-81
2022/05/11 05:17:57;;;;;;;0.20;0.20;;;13.60;99.90;;;;;;5012797;28;20049;-80
2022/05/11 05:20:23;;;;;;;9.13;1.40;;;13.60;99.90;;;;;;4996756;28;20049;-81
2022/05/11 05:22:49;;;;;;;0.35;0.30;;;13.60;99.90;;;;;;5014894;28;20048;-81
2022/05/11 05:25:15;;;;;;;0.43;0.25;;;13.70;99.90;;;;;;5017204;28;20117;-81
2022/05/11 05:27:40;;;;;;;0.17;0.17;;;13.70;99.90;;;;;;5031176;28;20045;-81
2022/05/11 05:32:51;;;;;;;0.05;0.05;;;13.70;99.90;;;;;;5007742;28;20084;-86
2022/05/11 05:35:19;;;;;;;0.00;0.00;;;13.90;99.90;;;;;;5039467;28;20130;-86
2022/05/11 05:37:45;;;;;;;0.00;0.00;;;13.90;99.90;;;;;;5006756;28;20045;-86
2022/05/11 05:40:11;;;;;;;0.10;0.10;;;14.00;99.90;;;;;;5006986;28;20049;-86
2022/05/11 05:42:38;;;;;;;0.22;0.22;;;14.00;99.90;;;;;;4987411;28;20041;-86
2022/05/11 05:45:05;;;;;;;0.10;0.10;;;14.10;99.90;;;;;;5009662;28;20412;-86
2022/05/11 05:47:31;;;;;;;0.10;0.10;;;14.20;99.90;;;;;;5015976;28;20041;-80
2022/05/11 05:49:57;;;;;;;0.10;0.10;;;14.20;99.90;;;;;;5016098;28;20068;-80
2022/05/11 05:52:25;;;;;;;0.10;0.10;;;14.30;99.90;;;;;;5016516;28;20473;-81
2022/05/11 05:54:53;;;;;;;0.47;0.38;;;14.30;99.90;;;;;;5014341;28;20044;-81
2022/05/11 05:57:19;;;;;;;0.32;0.32;;;14.40;99.90;;;;;;5032879;28;20041;-80
2022/05/11 05:59:46;;;;;;;0.30;0.30;;;14.30;99.90;;;;;;5018560;28;20044;-80
2022/05/11 06:02:16;;;;;;;0.85;0.60;;;14.40;99.90;;;;;;4999342;28;20455;-81
2022/05/11 06:04:44;;;;;;;0.00;0.00;;;14.50;99.90;;;;;;4999992;28;20053;-80
2022/05/11 06:07:11;;;;;;;0.55;0.55;;;14.60;99.90;;;;;;5014814;28;20124;-81
2022/05/11 06:09:41;;;;;;;1.02;0.98;;;14.80;99.90;;;;;;5014588;28;20033;-81
2022/05/11 06:12:09;;;;;;;0.28;0.28;;;14.90;99.90;;;;;;5000832;28;20046;-81
2022/05/11 06:14:36;;;;;;;0.10;0.10;;;15.20;99.90;;;;;;5008469;28;20045;-81
2022/05/11 06:17:03;;;;;;;0.43;0.43;;;15.30;99.90;;;;;;5016503;28;21651;-81
2022/05/11 06:19:29;;;;;;;0.88;0.88;;;15.50;99.90;;;;;;4998378;28;20081;-80
2022/05/11 06:21:55;;;;;;;0.17;0.17;;;15.70;99.90;;;;;;5019248;28;20136;-80
2022/05/11 06:24:21;;;;;;;0.10;0.10;;;15.90;99.90;;;;;;5018863;28;20045;-80
2022/05/11 06:26:47;;;;;;;0.50;0.50;;;15.80;99.90;;;;;;5020517;28;20072;-81
2022/05/11 06:29:13;;;;;;;0.30;0.30;;;15.80;99.90;;;;;;5022853;28;20084;-80
2022/05/11 06:31:39;;;;;;;3.30;0.52;;;15.70;99.90;;;;;;5019373;28;20037;-81
2022/05/11 06:34:06;;;;;;;0.25;0.25;;;15.80;99.90;;;;;;4990229;28;20041;-81
2022/05/11 06:36:31;;;;;;;0.10;0.10;;;15.60;99.90;;;;;;5019301;28;20070;-80
2022/05/11 06:38:57;;;;;;;0.15;0.15;;;15.50;99.90;;;;;;5035893;28;20411;-81
2022/05/11 06:41:27;;;;;;;0.15;0.15;;;15.50;99.90;;;;;;5020822;28;20049;-80
2022/05/11 06:43:54;;;;;;;0.10;0.10;;;15.40;99.90;;;;;;5035972;28;20037;-80
2022/05/11 06:46:20;;;;;;;0.45;0.38;;;15.40;99.90;;;;;;5020923;28;20056;-80
2022/05/11 06:48:47;;;;;;;0.68;0.68;;;15.50;99.90;;;;;;5004166;28;20145;-81
2022/05/11 06:51:15;;;;;;;0.15;0.13;;;15.40;99.90;;;;;;5019419;28;20107;-80
2022/05/11 06:59:21;;;;;;;0.05;0.05;;;15.70;99.90;;;;;;5005973;28;20045;-81
2022/05/11 07:01:57;;;;;;;0.55;0.55;;;15.80;99.90;;;;;;5037910;28;20063;-81
2022/05/11 07:04:24;;;;;;;0.57;0.20;;;16.00;99.90;;;;;;5003290;28;20049;-81
2022/05/11 07:06:54;;;;;;;0.98;0.22;;;16.20;99.90;;;;;;5019892;28;20037;-81
2022/05/11 07:09:23;;;;;;;0.20;0.20;;;16.20;99.90;;;;;;5036032;28;20030;-80
2022/05/11 07:14:33;;;;;;;0.00;0.00;;;16.30;99.90;;;;;;5017706;28;20045;-80
2022/05/11 07:17:00;;;;;;;0.52;0.52;;;;;;;;;;4986726;28;20045;-80
2022/05/11 07:19:25;;;;;;;0.30;0.25;;;16.60;99.90;;;;;;5002349;28;20095;-80
2022/05/11 07:21:52;;;;;;;0.30;0.30;;;16.50;99.90;;;;;;5023091;28;20493;-81
2022/05/11 07:24:18;;;;;;;0.10;0.10;;;16.60;99.90;;;;;;5018803;28;22169;-81
2022/05/11 07:26:44;;;;;;;2.10;0.57;;;16.70;99.90;;;;;;5004986;28;20037;-81
2022/05/11 07:29:10;;;;;;;0.00;0.00;;;16.80;99.90;;;;;;5019050;28;20072;-81
2022/05/11 07:31:37;;;;;;;0.85;0.52;;;16.80;99.90;;;;;;5019398;28;20040;-81
2022/05/11 07:34:03;;;;;;;0.10;0.10;;;16.70;99.90;;;;;;5021853;28;20056;-81
2022/05/11 07:36:29;;;;;;;0.43;0.17;;;16.70;99.90;;;;;;5001470;28;20049;-81
2022/05/11 07:38:55;;;;;;;0.28;0.28;;;17.50;99.90;;;;;;5019973;28;20041;-80
2022/05/11 07:41:21;;;;;;;0.10;0.10;;;17.60;99.90;;;;;;5004628;28;20756;-81
2022/05/11 07:43:49;;;;;;;1.33;1.15;;;18.10;99.90;;;;;;4986246;28;20057;-81
2022/05/11 07:46:15;;;;;;;1.75;1.65;;;18.60;99.90;;;;;;5019398;28;20041;-81
2022/05/11 07:48:41;;;;;;;0.00;0.00;;;18.60;99.90;;;;;;5018607;28;20054;-81
2022/05/11 07:51:06;;;;;;;0.00;0.00;;;18.40;99.90;;;;;;5018294;28;20175;-81
2022/05/11 07:53:33;;;;;;;0.43;0.43;;;18.50;99.90;;;;;;5003090;28;20372;-81
2022/05/11 08:01:28;;;;;;;0.00;0.00;;;18.20;99.90;;;;;;4994664;28;20136;-86
2022/05/11 08:03:53;;;;;;;0.60;0.30;;;18.40;99.90;;;;;;5023203;28;20161;-86
2022/05/11 08:06:19;;;;;;;0.05;0.05;;;18.40;99.90;;;;;;5039885;28;20041;-86
2022/05/11 08:08:46;;;;;;;0.00;0.00;;;17.90;99.90;;;;;;5024599;28;20396;-86
2022/05/11 08:11:12;;;;;;;0.30;0.25;;;18.20;99.90;;;;;;5023204;28;20043;-86
2022/05/11 08:13:38;;;;;;;0.20;0.20;;;18.20;99.90;;;;;;5008081;28;20041;-86
2022/05/11 08:16:04;;;;;;;0.00;0.00;;;18.40;99.90;;;;;;5021251;28;20052;-81
2022/05/11 08:18:29;;;;;;;0.40;0.20;;;18.20;99.90;;;;;;5018012;28;20077;-81
2022/05/11 08:20:55;;;;;;;0.03;0.03;;;18.40;99.90;;;;;;5002729;28;21839;-81
2022/05/11 08:23:22;;;;;;;0.28;0.28;;;18.50;99.90;;;;;;5000828;28;20038;-81
2022/05/11 08:25:50;;;;;;;0.10;0.10;;;18.90;99.90;;;;;;4985925;28;20040;-81
2022/05/11 08:28:22;;;;;;;4.80;1.02;;;19.10;99.90;;;;;;5002709;28;21053;-81
2022/05/11 08:33:37;;;;;;;2.13;0.85;;;19.40;99.90;;;;;;5019817;28;20045;-81
2022/05/11 08:36:07;;;;;;;0.20;0.20;;;19.50;99.90;;;;;;5035619;28;21018;-81
2022/05/11 08:38:37;;;;;;;0.10;0.10;;;19.60;99.90;;;;;;5034751;28;20084;-81
2022/05/11 08:41:30;;;;;;;0.00;0.00;;;20.20;99.90;;;;;;5016883;28;20042;-81
2022/05/11 08:44:00;;;;;;;0.38;0.20;;;20.60;99.90;;;;;;5033491;28;20060;-81
2022/05/11 08:46:29;;;;;;;0.17;0.17;;;21.10;99.90;;;;;;5005463;28;20041;-81
2022/05/11 08:49:10;;;;;;;4.25;0.75;;;21.40;99.90;;;;;;5025808;28;20441;-81
2022/05/11 08:51:57;;;;;;;0.70;0.40;;;21.30;99.50;;;;;;5015162;28;20353;-81
2022/05/11 08:54:35;;;;;;;0.35;0.35;;;21.10;99.90;;;;;;5029962;28;20049;-81
2022/05/11 08:57:05;;;;;;;0.22;0.22;;;21.10;99.90;;;;;;5029730;28;20361;-81
2022/05/11 08:59:32;;;;;;;0.10;0.10;;;20.80;99.90;;;;;;5007720;28;20046;-81
2022/05/11 09:02:28;;;;;;;0.25;0.20;;;20.50;99.90;;;;;;5048932;28;20112;-81
2022/05/11 09:04:59;;;;;;;0.47;0.47;;;20.20;99.90;;;;;;5029678;28;20057;-81
2022/05/11 09:07:35;;;;;;;0.13;0.13;;;20.40;99.90;;;;;;5032122;28;20079;-86
2022/05/11 09:10:01;;;;;;;2.33;1.02;;;20.70;99.90;;;;;;5032058;28;20087;-86
2022/05/11 09:12:26;;;;;;;0.43;0.43;;;20.80;99.80;;;;;;5015124;28;20037;-86
2022/05/11 09:14:55;;;;;;;0.00;0.00;;;21.10;99.90;;;;;;5032288;28;20092;-86
2022/05/11 09:17:24;;;;;;;3.85;1.40;;;21.60;99.20;;;;;;5032273;28;20037;-87
2022/05/11 09:20:07;;;;;;;0.00;0.00;;;22.40;98.90;;;;;;5032402;28;20077;-86
2022/05/11 09:22:35;;;;;;;0.17;0.17;;;22.60;96.30;;;;;;5032080;28;20107;-81
2022/05/11 09:25:24;;;;;;;1.45;1.17;;;21.80;96.60;;;;;;5015720;28;20061;-81
2022/05/11 09:27:51;;;;;;;0.28;0.28;;;21.80;97.40;;;;;;5015837;28;20518;-81
2022/05/11 09:30:26;;;;;;;0.15;0.15;;;22.10;95.80;;;;;;5013043;28;20069;-81
2022/05/11 09:33:12;;;;;;;3.10;2.10;;;22.20;96.90;;;;;;5024338;28;20451;-81
2022/05/11 09:35:38;;;;;;;5.35;0.47;;;21.60;95.70;;;;;;5013056;28;20042;-81
2022/05/11 09:38:21;;;;;;;0.00;0.00;;;21.40;96.80;;;;;;5032035;28;20132;-81
2022/05/11 09:40:59;;;;;;;17.42;1.85;;;22.80;95.70;;;;;;5025970;28;20501;-86
2022/05/11 09:43:32;;;;;;;0.00;0.00;;;23.40;94.00;;;;;;5010739;28;20115;-86
2022/05/11 09:45:58;;;;;;;1.35;1.25;;;24.60;93.20;;;;;;5032663;28;20053;-87
2022/05/11 09:48:31;;;;;;;0.10;0.10;;;24.90;90.80;;;;;;5049030;28;20041;-86
2022/05/11 09:51:22;;;;;;;1.75;0.52;;;24.80;89.80;;;;;;5032875;28;20033;-86
2022/05/11 09:54:04;;;;;;;0.45;0.45;;;24.60;88.90;;;;;;5002080;28;20045;-87
2022/05/11 09:56:33;;;;;;;0.00;0.00;;;22.90;89.40;;;;;;5023722;28;20125;-86
2022/05/11 09:59:22;;;;;;;0.00;0.00;;;22.70;91.20;;;;;;5018480;28;20095;-86
2022/05/11 10:01:55;;;;;;;0.20;0.20;;;21.90;91.80;;;;;;5052903;28;20463;-86
2022/05/11 10:04:31;;;;;;;0.03;0.03;;;21.90;93.20;;;;;;5036076;28;20056;-86
2022/05/11 10:06:57;;;;;;;0.00;0.00;;;21.80;93.80;;;;;;5033150;28;20042;-86
2022/05/11 10:09:48;;;;;;;2.63;0.55;;;21.30;91.80;;;;;;5052162;28;20037;-86
2022/05/11 10:12:19;;;;;;;1.25;0.80;;;21.00;91.30;;;;;;5016174;28;20403;-81
2022/05/11 10:23:08;;;;;;;0.70;0.70;;;21.70;90.70;;;;;;5035597;28;20380;-81
2022/05/11 10:25:43;;;;;;;0.00;0.00;;;22.80;88.50;;;;;;5007224;28;20112;-81
2022/05/11 10:28:17;;;;;;;0.10;0.10;;;23.30;83.80;;;;;;5019602;28;20507;-82
2022/05/11 10:30:43;;;;;;;2.55;1.33;;;24.00;82.60;;;;;;5009118;28;20034;-86
2022/05/11 10:33:29;;;;;;;0.32;0.17;;;24.30;80.40;;;;;;5039166;28;20129;-86
2022/05/11 10:36:25;;;;;;;0.22;0.22;;;24.40;80.70;;;;;;5024802;28;20156;-87
2022/05/11 10:39:30;;;;;;;1.98;1.38;;;23.20;82.30;;;;;;5035469;28;20048;-86
2022/05/11 10:42:24;;;;;;;0.30;0.28;;;23.00;84.00;;;;;;5018972;28;20054;-86
2022/05/11 10:45:14;;;;;;;0.05;0.05;;;22.10;86.30;;;;;;5029917;28;20159;-86
2022/05/11 10:47:55;;;;;;;0.82;0.82;;;21.80;89.60;;;;;;5035884;28;20049;-86
2022/05/11 10:50:42;;;;;;;0.40;0.40;;;21.30;89.70;;;;;;5021687;28;20034;-87
2022/05/11 10:53:20;;;;;;;0.13;0.13;;;21.20;90.30;;;;;;5019318;28;20045;-87
2022/05/11 10:55:52;;;;;;;0.15;0.15;;;21.40;90.20;;;;;;5017760;28;20487;-86
2022/05/11 10:58:56;;;;;;;0.13;0.13;;;21.70;90.40;;;;;;5026639;28;20045;-86
2022/05/11 11:01:25;;;;;;;0.08;0.08;;;22.30;90.00;;;;;;5035857;28;20049;-87
2022/05/11 11:04:05;;;;;;;0.20;0.20;;;23.30;87.60;;;;;;5021469;28;20038;-88
2022/05/11 11:07:14;;;;;;;0.20;0.20;;;22.60;88.70;;;;;;5015074;28;20041;-87
2022/05/11 11:09:58;;;;;;;0.52;0.52;;;22.50;89.60;;;;;;5021453;28;20111;-87
2022/05/11 11:12:59;;;;;;;0.70;0.70;;;22.20;90.40;;;;;;5034679;28;20073;-87
2022/05/11 11:15:27;;;;;;;10.85;1.77;;;22.90;90.00;;;;;;5027309;28;20407;-88
2022/05/11 11:17:55;;;;;;;0.98;0.35;;;22.50;88.90;;;;;;5024879;28;20387;-87
2022/05/11 11:20:22;;;;;;;0.00;0.00;;;22.30;90.70;;;;;;5031446;28;20064;-82
2022/05/11 11:23:07;;;;;;;1.88;0.65;;;22.30;90.40;;;;;;5047890;28;20085;-82
2022/05/11 11:25:44;;;;;;;0.70;0.55;;;22.60;91.40;;;;;;5017721;28;20033;-82
2022/05/11 11:28:14;;;;;;;0.10;0.10;;;23.80;90.00;;;;;;5034829;28;20041;-82
2022/05/11 11:31:02;;;;;;;1.85;0.68;;;24.50;83.40;;;;;;5015510;28;20385;-82
2022/05/11 11:33:30;;;;;;;0.20;0.20;;;24.80;83.30;;;;;;5027771;28;20049;-82
2022/05/11 11:36:28;;;;;;;0.00;0.00;;;24.80;82.50;;;;;;5033772;28;20490;-82
2022/05/11 11:38:57;;;;;;;0.57;0.38;;;24.20;82.50;;;;;;5047518;28;20045;-81
2022/05/11 11:41:24;;;;;;;0.20;0.20;;;23.60;84.40;;;;;;5033781;28;20041;-81
2022/05/11 11:43:52;;;;;;;0.20;0.17;;;24.00;84.50;;;;;;5001423;28;20073;-82
2022/05/11 11:46:44;;;;;;;5.47;0.45;;;23.90;84.30;;;;;;5050144;28;20033;-81
2022/05/11 11:49:19;;;;;;;0.00;0.00;;;23.50;84.60;;;;;;5051032;28;20421;-81
2022/05/11 11:51:51;;;;;;;0.10;0.10;;;22.20;88.00;;;;;;5033968;28;20037;-81
2022/05/11 11:54:31;;;;;;;0.68;0.47;;;22.30;90.10;;;;;;5050891;28;20038;-81
2022/05/11 11:57:00;;;;;;;0.10;0.10;;;21.80;90.30;;;;;;5025076;28;20037;-81
2022/05/11 11:59:26;;;;;;;2.75;0.95;;;21.80;90.70;;;;;;5037271;28;20111;-81
2022/05/11 12:01:59;;;;;;;1.10;0.38;;;21.40;91.30;;;;;;5033834;28;20045;-81
2022/05/11 12:04:32;;;;;;;0.20;0.20;;;21.30;91.70;;;;;;5033997;28;20048;-81
2022/05/11 12:15:33;;;;;;;0.00;0.00;;;21.30;91.50;;;;;;5026602;28;20073;-87
2022/05/11 12:18:01;;;;;;;0.00;0.00;;;21.30;90.80;;;;;;5025805;28;20094;-86
2022/05/11 12:20:44;;;;;;;0.45;0.22;;;21.80;90.20;;;;;;5021621;28;20061;-87
2022/05/11 12:23:18;;;;;;;0.10;0.10;;;21.90;88.20;;;;;;5031719;28;20049;-87
2022/05/11 12:25:53;;;;;;;0.38;0.38;;;21.50;88.60;;;;;;4997769;28;20095;-82
2022/05/11 12:28:26;;;;;;;0.00;0.00;;;21.20;89.30;;;;;;5029098;28;20483;-81
2022/05/11 12:30:52;;;;;;;0.40;0.40;;;21.30;89.20;;;;;;5030161;28;20041;-82
2022/05/11 12:33:30;;;;;;;0.10;0.10;;;21.60;90.60;;;;;;5031021;28;20038;-82
2022/05/11 12:35:56;;;;;;;1.08;0.35;;;21.40;90.00;;;;;;5030252;28;20037;-81
2022/05/11 12:38:39;;;;;;;0.30;0.20;;;20.80;90.80;;;;;;5031784;28;20056;-82
2022/05/11 12:41:19;;;;;;;0.50;0.50;;;20.60;91.50;;;;;;5033241;28;20037;-82
2022/05/11 12:43:57;;;;;;;0.43;0.28;;;20.60;91.90;;;;;;5033735;28;20048;-86
2022/05/11 12:46:23;;;;;;;0.20;0.20;;;20.30;92.60;;;;;;5006336;28;20038;-86
2022/05/11 12:48:55;;;;;;;0.00;0.00;;;20.10;93.30;;;;;;5016202;28;20483;-86
2022/05/11 12:51:31;;;;;;;0.30;0.30;;;20.30;92.50;;;;;;5034020;28;20069;-87
2022/05/11 12:54:00;;;;;;;1.25;0.63;;;20.10;91.60;;;;;;5030516;28;20361;-87
2022/05/11 12:56:33;;;;;;;2.20;0.75;;;20.00;92.00;;;;;;5023291;28;20042;-87
2022/05/11 12:59:02;;;;;;;0.10;0.03;;;20.20;91.80;;;;;;5004557;28;20038;-86
2022/05/11 13:01:35;;;;;;;5.30;0.75;;;20.30;91.30;;;;;;5024465;28;20116;-87
2022/05/11 13:04:14;;;;;;;0.03;0.03;;;20.00;92.10;;;;;;5046323;28;20061;-87
2022/05/11 13:06:46;;;;;;;0.93;0.35;;;20.20;92.60;;;;;;5007075;28;20099;-86
2022/05/11 13:09:21;;;;;;;0.00;0.00;;;20.60;92.80;;;;;;4999300;28;20121;-87
2022/05/11 13:11:47;;;;;;;0.22;0.20;;;20.60;92.00;;;;;;5029741;28;20029;-87
2022/05/11 13:14:31;;;;;;;0.80;0.80;;;20.30;92.70;;;;;;5032720;28;20464;-87
2022/05/11 13:17:01;;;;;;;0.57;0.57;;;19.80;93.80;;;;;;5015265;28;20057;-81
2022/05/11 13:19:36;;;;;;;1.00;0.80;;;19.70;94.80;;;;;;5031954;28;20056;-81
2022/05/11 13:22:13;;;;;;;0.10;0.10;;;20.10;94.80;;;;;;5020235;28;20041;-81
2022/05/11 13:24:49;;;;;;;0.10;0.10;;;20.70;94.40;;;;;;5031977;28;20041;-81
2022/05/11 13:27:37;;;;;;;0.17;0.13;;;20.80;94.00;;;;;;5032444;28;20041;-81
2022/05/11 13:30:02;;;;;;;0.13;0.13;;;21.10;93.70;;;;;;5048702;28;20037;-81
2022/05/11 13:32:28;;;;;;;0.32;0.32;;;21.20;93.30;;;;;;5032641;28;20494;-87
2022/05/11 13:35:33;;;;;;;0.57;0.30;;;20.80;93.30;;;;;;5002362;28;20557;-87
2022/05/11 13:38:01;;;;;;;0.25;0.25;;;20.70;92.70;;;;;;5026756;28;20489;-87
2022/05/11 13:40:36;;;;;;;0.47;0.47;;;20.60;92.40;;;;;;5029959;28;20128;-87
2022/05/11 13:43:18;;;;;;;0.38;0.38;;;21.10;92.40;;;;;;5005186;28;20468;-87
2022/05/11 13:45:55;;;;;;;0.08;0.08;;;20.90;91.80;;;;;;5043919;28;20130;-87
2022/05/11 13:48:23;;;;;;;0.28;0.20;;;20.60;92.70;;;;;;5019623;28;20037;-87
2022/05/11 13:50:50;;;;;;;0.10;0.10;;;20.30;92.80;;;;;;5014610;28;20105;-87